Fayetteville Regional Grannis Field
KFAY : rendu visible

Aérodrome :











RETROUVEZ-NOUS SUR...

 
LOGIN :

S'inscrire | Disclaimer

   EN    FR    IT 

 









Légende :    VFR   VFR Marginal   IFR   IFR Intensif   IFR Très Intensif
Visi : 
Plafond : 
>= 8 km
>= 3000ft
5 à 8 km
1000 à 3000 ft
1500m à 5 km
500 à 1000 ft
800 à 1500m
200 à 500 ft
< 800m
< 200 ft
Symboles :   Orages  Brouillard  Fortes neiges  Fortes précipitations  Vent > 20 kt






- Altitude de l'aérodrome : 189 ft
- Code IATA : FAY


KFAY - Fayetteville Regional Grannis Field

DERNIER METAR :
  • 170953Z 01018G28KT 10SM OVC021 07/02 A2999 RMK AO2 PK WND 01031/0908 SLP151 T00670017

METARs EXPIRÉS :
  • 170853Z 01020G28KT 10SM OVC022 07/02 A3001 RMK AO2 PK WND 01032/0805 SLP156 T00670017 56003
  • 170753Z 01020G29KT 10SM OVC022 07/02 A3001 RMK AO2 PK WND 02031/0738 SLP159 T00670017

TAF KFAY
Valide du 17 à 06h jusqu'au 18 à 06h UTC


170539Z 1706/1806 02014G25KT P6SM OVC015
TEMPO 1706/1708 SCT025 OVC070
FM180300 02012G18KT P6SM BKN025 OVC050



MET'MAP, la Météo Aéronautique d'un coup d'oeil ! - Copyright ORBIFLY Décembre 2007 - Disclaimer

ORBIFLY MET'MAP TEAM :

Programmation & Développement : Alexandra Zaïnal
Conception & Développement : Baudouin d'Aumeries
Co-Programmation & Développement : Marc-Olivier Méhu
Soutien technique & logistique : Manuel Goepfert

Contact : metmap@orbifly.com




SOURCES & CREDITS :

   NOAA       Earth
Advisory